This is the latest recevied weather packets stored in our database for station/object AB0TJ. If no packets are shown the sender has not sent any weather packets the latest 10 day(s).
| Time | Temp. | Humidity | Pressure | Rain* | Wind** | Luminosity | Snow |
|---|---|---|---|---|---|---|---|
| 1777948033 | 18.33° C | 43% | 1008 hPa | 0 mm | - | 0 W/m² | - |
| 1777947439 | 18.33° C | 42% | 1007.6 hPa | 0 mm | - | 1 W/m² | - |
| 1777946864 | 18.89° C | 42% | 1007.5 hPa | 0 mm | - | 2 W/m² | - |
| 1777946284 | 19.44° C | 42% | 1007.5 hPa | 0 mm | - | 6 W/m² | - |
| 1777945769 | 20° C | 37% | 1007.4 hPa | 0 mm | - | 11 W/m² | - |
| 1777945197 | 20.56° C | 34% | 1007.2 hPa | 0 mm | - | 15 W/m² | - |
| 1777944654 | 21.11° C | 31% | 1006.8 hPa | 0 mm | - | 22 W/m² | - |
| 1777944173 | 21.11° C | 32% | 1006.7 hPa | 0 mm | - | 42 W/m² | - |
| 1777943624 | 21.11° C | 31% | 1006.6 hPa | 0 mm | - | 47 W/m² | - |
| 1777943109 | 21.67° C | 31% | 1006.8 hPa | 0 mm | - | 55 W/m² | - |
| 1777942554 | 22.22° C | 30% | 1006.9 hPa | 0 mm | - | 55 W/m² | - |
| 1777942030 | 22.78° C | 30% | 1006.9 hPa | 0 mm | - | 83 W/m² | - |
| 1777941516 | 23.33° C | 29% | 1006.8 hPa | 0 mm | - | 106 W/m² | - |
| 1777940989 | 23.33° C | 29% | 1006.8 hPa | 0 mm | - | 135 W/m² | - |
| 1777940416 | 22.78° C | 30% | 1006.9 hPa | 0 mm | - | 175 W/m² | - |
| 1777939829 | 22.22° C | 31% | 1007.2 hPa | 0 mm | - | 198 W/m² | - |
| 1777939350 | 22.22° C | 32% | 1007.2 hPa | 0 mm | - | 220 W/m² | - |
| 1777938804 | 21.11° C | 35% | 1007.3 hPa | 0 mm | - | 207 W/m² | - |
| 1777938219 | 21.67° C | 35% | 1007.4 hPa | 0 mm | - | 217 W/m² | - |
| 1777937669 | 21.67° C | 35% | 1007.6 hPa | 0 mm | - | 344 W/m² | - |
| 1777937129 | 22.78° C | 33% | 1007.5 hPa | 0 mm | - | 208 W/m² | - |
| 1777936539 | 22.78° C | 31% | 1007.7 hPa | 0 mm | - | 213 W/m² | - |
| 1777935949 | 22.78° C | 32% | 1007.6 hPa | 0 mm | - | 220 W/m² | - |
| 1777935419 | 22.22° C | 34% | 1007.4 hPa | 0 mm | - | 291 W/m² | - |
| 1777934926 | 22.22° C | 35% | 1007.6 hPa | 0 mm | - | 263 W/m² | - |
* Rain latest hour (hover to see other rain measurements)
** Current wind speed in m/s (hover to see current wind gust speed)